sensor_id;sensor_type;location;lat;lon;timestamp;P1;durP1;ratioP1;P2;durP2;ratioP2
51214;SDS011;41093;47.444;19.134;2022-08-21T00:00:17;5.50;;;5.05;;
51214;SDS011;41093;47.444;19.134;2022-08-21T00:02:49;5.25;;;4.82;;
51214;SDS011;41093;47.444;19.134;2022-08-21T00:05:15;6.05;;;4.90;;
51214;SDS011;41093;47.444;19.134;2022-08-21T00:07:41;5.75;;;5.25;;
51214;SDS011;41093;47.444;19.134;2022-08-21T00:10:08;5.47;;;4.97;;
51214;SDS011;41093;47.444;19.134;2022-08-21T00:12:34;5.32;;;4.93;;
51214;SDS011;41093;47.444;19.134;2022-08-21T00:15:00;4.95;;;4.55;;
51214;SDS011;41093;47.444;19.134;2022-08-21T00:17:26;5.10;;;4.60;;
51214;SDS011;41093;47.444;19.134;2022-08-21T00:19:52;5.22;;;4.75;;
51214;SDS011;41093;47.444;19.134;2022-08-21T00:22:18;5.65;;;5.05;;
51214;SDS011;41093;47.444;19.134;2022-08-21T00:24:44;5.53;;;5.13;;
51214;SDS011;41093;47.444;19.134;2022-08-21T00:27:10;5.45;;;5.03;;
51214;SDS011;41093;47.444;19.134;2022-08-21T00:29:37;6.57;;;5.40;;
51214;SDS011;41093;47.444;19.134;2022-08-21T00:32:04;5.78;;;4.45;;
51214;SDS011;41093;47.444;19.134;2022-08-21T00:34:31;5.47;;;4.97;;
51214;SDS011;41093;47.444;19.134;2022-08-21T00:36:57;5.28;;;4.78;;
51214;SDS011;41093;47.444;19.134;2022-08-21T00:39:23;6.13;;;5.53;;
51214;SDS011;41093;47.444;19.134;2022-08-21T00:41:49;5.43;;;4.93;;
51214;SDS011;41093;47.444;19.134;2022-08-21T00:44:15;5.63;;;5.13;;
51214;SDS011;41093;47.444;19.134;2022-08-21T00:46:42;6.30;;;5.68;;
51214;SDS011;41093;47.444;19.134;2022-08-21T00:49:10;5.55;;;5.05;;
51214;SDS011;41093;47.444;19.134;2022-08-21T00:51:57;5.78;;;5.18;;
51214;SDS011;41093;47.444;19.134;2022-08-21T00:54:25;6.90;;;6.28;;
51214;SDS011;41093;47.444;19.134;2022-08-21T00:56:54;6.93;;;6.32;;
51214;SDS011;41093;47.444;19.134;2022-08-21T00:59:21;6.45;;;5.85;;
51214;SDS011;41093;47.444;19.134;2022-08-21T01:01:49;6.38;;;5.80;;
51214;SDS011;41093;47.444;19.134;2022-08-21T01:04:17;6.72;;;6.03;;
51214;SDS011;41093;47.444;19.134;2022-08-21T01:06:43;6.93;;;6.32;;
51214;SDS011;41093;47.444;19.134;2022-08-21T01:09:10;7.47;;;6.32;;
51214;SDS011;41093;47.444;19.134;2022-08-21T01:11:36;7.22;;;6.45;;
51214;SDS011;41093;47.444;19.134;2022-08-21T01:14:02;7.47;;;6.60;;
51214;SDS011;41093;47.444;19.134;2022-08-21T01:16:29;6.30;;;5.80;;
51214;SDS011;41093;47.444;19.134;2022-08-21T01:18:55;7.00;;;6.35;;
51214;SDS011;41093;47.444;19.134;2022-08-21T01:21:22;7.50;;;6.85;;
51214;SDS011;41093;47.444;19.134;2022-08-21T01:23:50;7.32;;;6.63;;
51214;SDS011;41093;47.444;19.134;2022-08-21T01:26:18;7.78;;;7.18;;
51214;SDS011;41093;47.444;19.134;2022-08-21T01:31:30;7.88;;;7.18;;
51214;SDS011;41093;47.444;19.134;2022-08-21T01:33:58;8.70;;;7.78;;
51214;SDS011;41093;47.444;19.134;2022-08-21T01:36:24;8.65;;;7.82;;
51214;SDS011;41093;47.444;19.134;2022-08-21T01:38:51;8.43;;;7.72;;
51214;SDS011;41093;47.444;19.134;2022-08-21T01:41:17;8.95;;;8.05;;
51214;SDS011;41093;47.444;19.134;2022-08-21T01:43:43;9.05;;;8.23;;
51214;SDS011;41093;47.444;19.134;2022-08-21T01:46:10;9.02;;;8.23;;
51214;SDS011;41093;47.444;19.134;2022-08-21T01:48:37;8.98;;;8.13;;
51214;SDS011;41093;47.444;19.134;2022-08-21T01:51:03;9.15;;;8.25;;
51214;SDS011;41093;47.444;19.134;2022-08-21T01:53:30;9.10;;;8.20;;
51214;SDS011;41093;47.444;19.134;2022-08-21T01:55:56;11.10;;;9.20;;
51214;SDS011;41093;47.444;19.134;2022-08-21T01:58:22;9.70;;;8.90;;
51214;SDS011;41093;47.444;19.134;2022-08-21T02:00:48;10.60;;;8.93;;
51214;SDS011;41093;47.444;19.134;2022-08-21T02:03:14;11.25;;;10.15;;
51214;SDS011;41093;47.444;19.134;2022-08-21T02:05:41;11.07;;;9.98;;
51214;SDS011;41093;47.444;19.134;2022-08-21T02:08:07;10.95;;;9.85;;
51214;SDS011;41093;47.444;19.134;2022-08-21T02:10:33;11.73;;;10.70;;
51214;SDS011;41093;47.444;19.134;2022-08-21T02:12:59;11.02;;;9.93;;
51214;SDS011;41093;47.444;19.134;2022-08-21T02:15:26;12.13;;;10.93;;
51214;SDS011;41093;47.444;19.134;2022-08-21T02:17:53;12.40;;;11.10;;
51214;SDS011;41093;47.444;19.134;2022-08-21T02:20:31;13.35;;;10.77;;
51214;SDS011;41093;47.444;19.134;2022-08-21T02:22:58;13.05;;;10.68;;
51214;SDS011;41093;47.444;19.134;2022-08-21T02:25:25;12.35;;;11.15;;
51214;SDS011;41093;47.444;19.134;2022-08-21T02:27:52;11.73;;;10.55;;
51214;SDS011;41093;47.444;19.134;2022-08-21T02:30:26;12.75;;;11.45;;
51214;SDS011;41093;47.444;19.134;2022-08-21T02:32:52;12.77;;;11.48;;
51214;SDS011;41093;47.444;19.134;2022-08-21T02:35:18;12.65;;;11.07;;
51214;SDS011;41093;47.444;19.134;2022-08-21T02:37:46;12.60;;;10.88;;
51214;SDS011;41093;47.444;19.134;2022-08-21T02:40:13;12.65;;;10.95;;
51214;SDS011;41093;47.444;19.134;2022-08-21T02:42:39;11.10;;;10.05;;
51214;SDS011;41093;47.444;19.134;2022-08-21T02:45:06;12.57;;;11.38;;
51214;SDS011;41093;47.444;19.134;2022-08-21T02:47:32;11.68;;;10.52;;
51214;SDS011;41093;47.444;19.134;2022-08-21T02:49:58;13.02;;;11.73;;
51214;SDS011;41093;47.444;19.134;2022-08-21T02:52:24;12.65;;;11.32;;
51214;SDS011;41093;47.444;19.134;2022-08-21T02:54:51;12.95;;;11.55;;
51214;SDS011;41093;47.444;19.134;2022-08-21T02:57:17;12.77;;;11.48;;
51214;SDS011;41093;47.444;19.134;2022-08-21T02:59:43;14.38;;;12.48;;
51214;SDS011;41093;47.444;19.134;2022-08-21T03:02:09;13.68;;;12.30;;
51214;SDS011;41093;47.444;19.134;2022-08-21T03:04:36;13.02;;;11.68;;
51214;SDS011;41093;47.444;19.134;2022-08-21T03:07:02;14.02;;;12.52;;
51214;SDS011;41093;47.444;19.134;2022-08-21T03:09:28;16.75;;;12.52;;
51214;SDS011;41093;47.444;19.134;2022-08-21T03:11:55;14.10;;;12.68;;
51214;SDS011;41093;47.444;19.134;2022-08-21T03:14:21;14.57;;;12.60;;
51214;SDS011;41093;47.444;19.134;2022-08-21T03:16:47;14.63;;;13.13;;
51214;SDS011;41093;47.444;19.134;2022-08-21T03:19:13;14.70;;;13.20;;
51214;SDS011;41093;47.444;19.134;2022-08-21T03:21:39;14.73;;;13.07;;
51214;SDS011;41093;47.444;19.134;2022-08-21T03:24:05;16.60;;;12.32;;
51214;SDS011;41093;47.444;19.134;2022-08-21T03:26:31;16.95;;;13.75;;
51214;SDS011;41093;47.444;19.134;2022-08-21T03:28:58;17.27;;;13.20;;
51214;SDS011;41093;47.444;19.134;2022-08-21T03:31:24;15.02;;;13.45;;
51214;SDS011;41093;47.444;19.134;2022-08-21T03:33:55;14.80;;;13.32;;
51214;SDS011;41093;47.444;19.134;2022-08-21T03:36:21;14.73;;;13.25;;
51214;SDS011;41093;47.444;19.134;2022-08-21T03:38:48;16.13;;;12.85;;
51214;SDS011;41093;47.444;19.134;2022-08-21T03:41:14;15.88;;;13.00;;
51214;SDS011;41093;47.444;19.134;2022-08-21T03:43:40;13.32;;;11.93;;
51214;SDS011;41093;47.444;19.134;2022-08-21T03:46:06;15.35;;;12.60;;
51214;SDS011;41093;47.444;19.134;2022-08-21T03:48:33;13.45;;;12.05;;
51214;SDS011;41093;47.444;19.134;2022-08-21T03:50:59;14.32;;;12.82;;
51214;SDS011;41093;47.444;19.134;2022-08-21T03:53:25;14.13;;;12.05;;
51214;SDS011;41093;47.444;19.134;2022-08-21T03:55:52;15.40;;;13.68;;
51214;SDS011;41093;47.444;19.134;2022-08-21T03:58:19;14.57;;;12.95;;
51214;SDS011;41093;47.444;19.134;2022-08-21T04:00:46;14.38;;;12.82;;
51214;SDS011;41093;47.444;19.134;2022-08-21T04:03:13;15.45;;;12.25;;
51214;SDS011;41093;47.444;19.134;2022-08-21T04:05:39;14.18;;;12.20;;
51214;SDS011;41093;47.444;19.134;2022-08-21T04:08:06;15.07;;;13.52;;
51214;SDS011;41093;47.444;19.134;2022-08-21T04:10:33;14.95;;;13.27;;
51214;SDS011;41093;47.444;19.134;2022-08-21T04:13:00;14.85;;;13.23;;
51214;SDS011;41093;47.444;19.134;2022-08-21T04:15:26;16.23;;;13.68;;
51214;SDS011;41093;47.444;19.134;2022-08-21T04:17:53;14.00;;;12.60;;
51214;SDS011;41093;47.444;19.134;2022-08-21T04:20:20;13.02;;;11.75;;
51214;SDS011;41093;47.444;19.134;2022-08-21T04:22:46;15.65;;;12.80;;
51214;SDS011;41093;47.444;19.134;2022-08-21T04:25:14;13.30;;;11.60;;
51214;SDS011;41093;47.444;19.134;2022-08-21T04:27:44;14.75;;;13.23;;
51214;SDS011;41093;47.444;19.134;2022-08-21T04:30:11;16.25;;;13.32;;
51214;SDS011;41093;47.444;19.134;2022-08-21T04:32:38;14.23;;;12.82;;
51214;SDS011;41093;47.444;19.134;2022-08-21T04:35:05;14.48;;;12.27;;
51214;SDS011;41093;47.444;19.134;2022-08-21T04:37:32;14.38;;;12.85;;
51214;SDS011;41093;47.444;19.134;2022-08-21T04:39:58;14.13;;;12.15;;
51214;SDS011;41093;47.444;19.134;2022-08-21T04:42:25;14.45;;;12.95;;
51214;SDS011;41093;47.444;19.134;2022-08-21T04:44:51;12.63;;;11.32;;
51214;SDS011;41093;47.444;19.134;2022-08-21T04:47:17;13.00;;;11.65;;
51214;SDS011;41093;47.444;19.134;2022-08-21T04:49:44;12.80;;;11.45;;
51214;SDS011;41093;47.444;19.134;2022-08-21T04:52:11;13.25;;;11.98;;
51214;SDS011;41093;47.444;19.134;2022-08-21T04:54:37;13.15;;;11.75;;
51214;SDS011;41093;47.444;19.134;2022-08-21T04:57:04;12.50;;;11.27;;
51214;SDS011;41093;47.444;19.134;2022-08-21T04:59:44;13.02;;;11.73;;
51214;SDS011;41093;47.444;19.134;2022-08-21T05:02:11;12.90;;;11.57;;
51214;SDS011;41093;47.444;19.134;2022-08-21T05:04:42;11.93;;;10.65;;
51214;SDS011;41093;47.444;19.134;2022-08-21T05:07:10;14.43;;;11.40;;
51214;SDS011;41093;47.444;19.134;2022-08-21T05:09:38;12.05;;;10.85;;
51214;SDS011;41093;47.444;19.134;2022-08-21T05:12:04;12.73;;;11.48;;
51214;SDS011;41093;47.444;19.134;2022-08-21T05:14:30;13.90;;;10.93;;
51214;SDS011;41093;47.444;19.134;2022-08-21T05:16:57;11.25;;;9.90;;
51214;SDS011;41093;47.444;19.134;2022-08-21T05:19:23;12.18;;;9.45;;
51214;SDS011;41093;47.444;19.134;2022-08-21T05:21:51;10.55;;;9.55;;
51214;SDS011;41093;47.444;19.134;2022-08-21T05:24:17;11.32;;;9.90;;
51214;SDS011;41093;47.444;19.134;2022-08-21T05:26:43;11.55;;;10.40;;
51214;SDS011;41093;47.444;19.134;2022-08-21T05:29:10;10.73;;;9.60;;
51214;SDS011;41093;47.444;19.134;2022-08-21T05:31:36;11.40;;;10.07;;
51214;SDS011;41093;47.444;19.134;2022-08-21T05:34:03;10.98;;;9.88;;
51214;SDS011;41093;47.444;19.134;2022-08-21T05:36:29;10.68;;;9.43;;
51214;SDS011;41093;47.444;19.134;2022-08-21T05:38:55;10.93;;;8.77;;
51214;SDS011;41093;47.444;19.134;2022-08-21T05:41:21;10.90;;;9.73;;
51214;SDS011;41093;47.444;19.134;2022-08-21T05:43:47;10.13;;;8.98;;
51214;SDS011;41093;47.444;19.134;2022-08-21T05:46:14;8.50;;;7.70;;
51214;SDS011;41093;47.444;19.134;2022-08-21T05:48:41;7.32;;;6.68;;
51214;SDS011;41093;47.444;19.134;2022-08-21T05:51:11;7.97;;;7.13;;
51214;SDS011;41093;47.444;19.134;2022-08-21T05:53:38;8.32;;;7.55;;
51214;SDS011;41093;47.444;19.134;2022-08-21T05:56:04;8.02;;;7.32;;
51214;SDS011;41093;47.444;19.134;2022-08-21T05:58:32;7.85;;;7.15;;
51214;SDS011;41093;47.444;19.134;2022-08-21T06:00:59;7.45;;;6.75;;
51214;SDS011;41093;47.444;19.134;2022-08-21T06:03:26;7.32;;;6.65;;
51214;SDS011;41093;47.444;19.134;2022-08-21T06:05:52;7.10;;;6.47;;
51214;SDS011;41093;47.444;19.134;2022-08-21T06:08:19;6.65;;;6.05;;
51214;SDS011;41093;47.444;19.134;2022-08-21T06:10:45;7.32;;;6.60;;
51214;SDS011;41093;47.444;19.134;2022-08-21T06:13:12;7.47;;;6.78;;
51214;SDS011;41093;47.444;19.134;2022-08-21T06:15:38;6.78;;;5.70;;
51214;SDS011;41093;47.444;19.134;2022-08-21T06:18:05;6.55;;;6.03;;
51214;SDS011;41093;47.444;19.134;2022-08-21T06:20:31;6.07;;;5.57;;
51214;SDS011;41093;47.444;19.134;2022-08-21T06:22:57;6.97;;;6.28;;
51214;SDS011;41093;47.444;19.134;2022-08-21T06:25:24;7.47;;;6.13;;
51214;SDS011;41093;47.444;19.134;2022-08-21T06:27:50;6.20;;;5.70;;
51214;SDS011;41093;47.444;19.134;2022-08-21T06:30:17;6.03;;;5.53;;
51214;SDS011;41093;47.444;19.134;2022-08-21T06:32:43;5.47;;;4.97;;
51214;SDS011;41093;47.444;19.134;2022-08-21T06:35:09;8.65;;;5.43;;
51214;SDS011;41093;47.444;19.134;2022-08-21T06:37:35;5.40;;;5.00;;
51214;SDS011;41093;47.444;19.134;2022-08-21T06:40:03;5.15;;;4.70;;
51214;SDS011;41093;47.444;19.134;2022-08-21T06:42:29;5.07;;;4.68;;
51214;SDS011;41093;47.444;19.134;2022-08-21T06:44:56;5.35;;;4.75;;
51214;SDS011;41093;47.444;19.134;2022-08-21T06:47:22;5.32;;;4.93;;
51214;SDS011;41093;47.444;19.134;2022-08-21T06:49:49;5.28;;;4.78;;
51214;SDS011;41093;47.444;19.134;2022-08-21T06:52:15;5.45;;;4.97;;
51214;SDS011;41093;47.444;19.134;2022-08-21T06:54:41;5.22;;;4.82;;
51214;SDS011;41093;47.444;19.134;2022-08-21T06:57:07;5.25;;;4.85;;
51214;SDS011;41093;47.444;19.134;2022-08-21T06:59:34;4.75;;;4.38;;
51214;SDS011;41093;47.444;19.134;2022-08-21T07:02:00;4.63;;;4.22;;
51214;SDS011;41093;47.444;19.134;2022-08-21T07:04:26;4.80;;;4.28;;
51214;SDS011;41093;47.444;19.134;2022-08-21T07:06:52;4.72;;;4.32;;
51214;SDS011;41093;47.444;19.134;2022-08-21T07:09:18;4.18;;;3.72;;
51214;SDS011;41093;47.444;19.134;2022-08-21T07:11:44;4.53;;;4.22;;
51214;SDS011;41093;47.444;19.134;2022-08-21T07:14:14;3.97;;;3.70;;
51214;SDS011;41093;47.444;19.134;2022-08-21T07:16:40;5.50;;;3.80;;
51214;SDS011;41093;47.444;19.134;2022-08-21T07:19:06;5.97;;;4.03;;
51214;SDS011;41093;47.444;19.134;2022-08-21T07:21:32;3.88;;;3.40;;
51214;SDS011;41093;47.444;19.134;2022-08-21T07:23:58;4.82;;;4.47;;
51214;SDS011;41093;47.444;19.134;2022-08-21T07:26:24;4.03;;;3.72;;
51214;SDS011;41093;47.444;19.134;2022-08-21T07:28:51;4.72;;;3.72;;
51214;SDS011;41093;47.444;19.134;2022-08-21T07:31:18;4.75;;;4.35;;
51214;SDS011;41093;47.444;19.134;2022-08-21T07:33:44;5.97;;;4.20;;
51214;SDS011;41093;47.444;19.134;2022-08-21T07:36:10;4.10;;;3.70;;
51214;SDS011;41093;47.444;19.134;2022-08-21T07:38:36;4.45;;;3.88;;
51214;SDS011;41093;47.444;19.134;2022-08-21T07:41:05;4.82;;;4.32;;
51214;SDS011;41093;47.444;19.134;2022-08-21T07:43:32;4.15;;;3.80;;
51214;SDS011;41093;47.444;19.134;2022-08-21T07:45:58;4.28;;;3.90;;
51214;SDS011;41093;47.444;19.134;2022-08-21T07:48:24;4.55;;;4.10;;
51214;SDS011;41093;47.444;19.134;2022-08-21T07:50:50;3.67;;;3.38;;
51214;SDS011;41093;47.444;19.134;2022-08-21T07:53:17;3.40;;;3.20;;
51214;SDS011;41093;47.444;19.134;2022-08-21T07:55:43;5.35;;;4.47;;
51214;SDS011;41093;47.444;19.134;2022-08-21T07:58:09;5.05;;;4.57;;
51214;SDS011;41093;47.444;19.134;2022-08-21T08:00:35;4.60;;;3.92;;
51214;SDS011;41093;47.444;19.134;2022-08-21T08:03:01;4.60;;;4.13;;
51214;SDS011;41093;47.444;19.134;2022-08-21T08:05:29;4.13;;;3.83;;
51214;SDS011;41093;47.444;19.134;2022-08-21T08:07:55;4.43;;;4.03;;
51214;SDS011;41093;47.444;19.134;2022-08-21T08:10:22;5.10;;;3.90;;
51214;SDS011;41093;47.444;19.134;2022-08-21T08:12:49;3.90;;;3.60;;
51214;SDS011;41093;47.444;19.134;2022-08-21T08:15:17;4.60;;;3.85;;
51214;SDS011;41093;47.444;19.134;2022-08-21T08:17:44;4.13;;;3.83;;
51214;SDS011;41093;47.444;19.134;2022-08-21T08:20:11;4.97;;;3.47;;
51214;SDS011;41093;47.444;19.134;2022-08-21T08:22:38;3.63;;;3.42;;
51214;SDS011;41093;47.444;19.134;2022-08-21T08:25:05;4.38;;;3.97;;
51214;SDS011;41093;47.444;19.134;2022-08-21T08:27:31;5.03;;;3.47;;
51214;SDS011;41093;47.444;19.134;2022-08-21T08:29:58;3.72;;;3.17;;
51214;SDS011;41093;47.444;19.134;2022-08-21T08:32:24;3.83;;;3.53;;
51214;SDS011;41093;47.444;19.134;2022-08-21T08:34:50;3.80;;;3.40;;
51214;SDS011;41093;47.444;19.134;2022-08-21T08:37:17;3.55;;;3.22;;
51214;SDS011;41093;47.444;19.134;2022-08-21T08:39:44;4.45;;;3.97;;
51214;SDS011;41093;47.444;19.134;2022-08-21T08:42:18;4.25;;;3.85;;
51214;SDS011;41093;47.444;19.134;2022-08-21T08:44:46;4.10;;;3.65;;
51214;SDS011;41093;47.444;19.134;2022-08-21T08:47:13;4.32;;;3.92;;
51214;SDS011;41093;47.444;19.134;2022-08-21T08:49:51;5.18;;;4.40;;
51214;SDS011;41093;47.444;19.134;2022-08-21T08:52:20;4.13;;;3.72;;
51214;SDS011;41093;47.444;19.134;2022-08-21T08:54:50;5.10;;;4.60;;
51214;SDS011;41093;47.444;19.134;2022-08-21T08:57:19;5.30;;;3.58;;
51214;SDS011;41093;47.444;19.134;2022-08-21T08:59:47;4.60;;;3.80;;
51214;SDS011;41093;47.444;19.134;2022-08-21T09:02:15;4.28;;;3.92;;
51214;SDS011;41093;47.444;19.134;2022-08-21T09:04:42;4.78;;;4.40;;
51214;SDS011;41093;47.444;19.134;2022-08-21T09:07:15;4.00;;;3.60;;
51214;SDS011;41093;47.444;19.134;2022-08-21T09:09:48;4.78;;;4.32;;
51214;SDS011;41093;47.444;19.134;2022-08-21T09:25:27;5.15;;;4.32;;
51214;SDS011;41093;47.444;19.134;2022-08-21T09:27:55;4.38;;;4.07;;
51214;SDS011;41093;47.444;19.134;2022-08-21T09:30:30;3.60;;;3.40;;
51214;SDS011;41093;47.444;19.134;2022-08-21T09:32:56;6.72;;;5.75;;
51214;SDS011;41093;47.444;19.134;2022-08-21T09:35:22;4.90;;;4.00;;
51214;SDS011;41093;47.444;19.134;2022-08-21T09:37:54;3.70;;;3.40;;
51214;SDS011;41093;47.444;19.134;2022-08-21T09:42:53;3.90;;;3.50;;
51214;SDS011;41093;47.444;19.134;2022-08-21T09:45:19;4.18;;;3.88;;
51214;SDS011;41093;47.444;19.134;2022-08-21T09:47:46;3.50;;;3.20;;
51214;SDS011;41093;47.444;19.134;2022-08-21T09:52:48;3.50;;;3.20;;
51214;SDS011;41093;47.444;19.134;2022-08-21T09:55:19;3.58;;;3.28;;
51214;SDS011;41093;47.444;19.134;2022-08-21T09:58:04;4.65;;;4.25;;
51214;SDS011;41093;47.444;19.134;2022-08-21T10:00:32;9.20;;;8.30;;
51214;SDS011;41093;47.444;19.134;2022-08-21T10:03:08;4.40;;;4.00;;
51214;SDS011;41093;47.444;19.134;2022-08-21T10:05:35;4.82;;;4.32;;
51214;SDS011;41093;47.444;19.134;2022-08-21T10:08:01;3.83;;;3.42;;
51214;SDS011;41093;47.444;19.134;2022-08-21T10:10:29;5.05;;;3.75;;
51214;SDS011;41093;47.444;19.134;2022-08-21T10:18:10;4.00;;;3.70;;
51214;SDS011;41093;47.444;19.134;2022-08-21T10:21:00;7.15;;;4.78;;
51214;SDS011;41093;47.444;19.134;2022-08-21T10:23:40;5.28;;;4.75;;
51214;SDS011;41093;47.444;19.134;2022-08-21T10:36:30;7.28;;;6.15;;
51214;SDS011;41093;47.444;19.134;2022-08-21T10:46:52;4.68;;;4.25;;
51214;SDS011;41093;47.444;19.134;2022-08-21T10:59:57;5.88;;;5.38;;
51214;SDS011;41093;47.444;19.134;2022-08-21T11:04:54;6.15;;;5.53;;
51214;SDS011;41093;47.444;19.134;2022-08-21T11:07:25;5.30;;;4.90;;
51214;SDS011;41093;47.444;19.134;2022-08-21T11:09:52;5.72;;;5.22;;
51214;SDS011;41093;47.444;19.134;2022-08-21T11:12:28;5.70;;;5.20;;
51214;SDS011;41093;47.444;19.134;2022-08-21T11:17:24;5.78;;;5.28;;
51214;SDS011;41093;47.444;19.134;2022-08-21T11:20:02;5.43;;;5.00;;
51214;SDS011;41093;47.444;19.134;2022-08-21T11:22:35;6.85;;;4.95;;
51214;SDS011;41093;47.444;19.134;2022-08-21T11:25:50;7.32;;;5.55;;
51214;SDS011;41093;47.444;19.134;2022-08-21T11:27:58;6.55;;;5.93;;
51214;SDS011;41093;47.444;19.134;2022-08-21T11:30:27;11.70;;;7.13;;
51214;SDS011;41093;47.444;19.134;2022-08-21T11:48:29;7.10;;;6.45;;
51214;SDS011;41093;47.444;19.134;2022-08-21T11:50:59;7.88;;;6.30;;
51214;SDS011;41093;47.444;19.134;2022-08-21T11:53:28;6.78;;;6.20;;
51214;SDS011;41093;47.444;19.134;2022-08-21T11:56:01;6.15;;;5.55;;
51214;SDS011;41093;47.444;19.134;2022-08-21T11:59:05;7.53;;;6.60;;
51214;SDS011;41093;47.444;19.134;2022-08-21T12:01:28;7.05;;;6.10;;
51214;SDS011;41093;47.444;19.134;2022-08-21T12:03:57;6.80;;;6.05;;
51214;SDS011;41093;47.444;19.134;2022-08-21T12:06:30;7.18;;;6.47;;
51214;SDS011;41093;47.444;19.134;2022-08-21T12:09:01;7.00;;;6.35;;
51214;SDS011;41093;47.444;19.134;2022-08-21T12:11:29;7.85;;;7.13;;
51214;SDS011;41093;47.444;19.134;2022-08-21T12:14:11;8.45;;;6.68;;
51214;SDS011;41093;47.444;19.134;2022-08-21T12:16:39;8.30;;;7.25;;
51214;SDS011;41093;47.444;19.134;2022-08-21T12:19:10;6.90;;;6.28;;
51214;SDS011;41093;47.444;19.134;2022-08-21T12:21:54;7.03;;;6.43;;
51214;SDS011;41093;47.444;19.134;2022-08-21T12:26:53;11.65;;;7.20;;
51214;SDS011;41093;47.444;19.134;2022-08-21T12:31:49;8.10;;;7.40;;
51214;SDS011;41093;47.444;19.134;2022-08-21T12:34:17;8.15;;;6.90;;
51214;SDS011;41093;47.444;19.134;2022-08-21T12:36:54;9.38;;;7.60;;
51214;SDS011;41093;47.444;19.134;2022-08-21T12:39:24;8.30;;;7.40;;
51214;SDS011;41093;47.444;19.134;2022-08-21T12:42:05;7.30;;;6.60;;
51214;SDS011;41093;47.444;19.134;2022-08-21T12:44:55;9.88;;;7.38;;
51214;SDS011;41093;47.444;19.134;2022-08-21T12:50:05;6.85;;;6.25;;
51214;SDS011;41093;47.444;19.134;2022-08-21T12:52:34;8.77;;;5.93;;
51214;SDS011;41093;47.444;19.134;2022-08-21T12:55:01;6.05;;;5.55;;
51214;SDS011;41093;47.444;19.134;2022-08-21T12:57:28;6.72;;;6.13;;
51214;SDS011;41093;47.444;19.134;2022-08-21T12:59:55;9.43;;;7.60;;
51214;SDS011;41093;47.444;19.134;2022-08-21T13:02:24;10.88;;;7.70;;
51214;SDS011;41093;47.444;19.134;2022-08-21T13:04:50;11.45;;;8.95;;
51214;SDS011;41093;47.444;19.134;2022-08-21T13:07:22;11.75;;;9.07;;
51214;SDS011;41093;47.444;19.134;2022-08-21T13:09:56;11.73;;;9.45;;
51214;SDS011;41093;47.444;19.134;2022-08-21T13:12:23;12.10;;;10.00;;
51214;SDS011;41093;47.444;19.134;2022-08-21T13:14:50;10.38;;;9.38;;
51214;SDS011;41093;47.444;19.134;2022-08-21T13:17:18;10.65;;;9.40;;
51214;SDS011;41093;47.444;19.134;2022-08-21T13:20:03;10.30;;;9.30;;
51214;SDS011;41093;47.444;19.134;2022-08-21T13:22:30;13.32;;;8.45;;
51214;SDS011;41093;47.444;19.134;2022-08-21T13:24:56;9.43;;;8.18;;
51214;SDS011;41093;47.444;19.134;2022-08-21T13:27:24;9.73;;;8.73;;
51214;SDS011;41093;47.444;19.134;2022-08-21T13:30:13;9.77;;;8.57;;
51214;SDS011;41093;47.444;19.134;2022-08-21T13:32:42;11.45;;;9.95;;
51214;SDS011;41093;47.444;19.134;2022-08-21T13:35:13;11.55;;;10.35;;
51214;SDS011;41093;47.444;19.134;2022-08-21T13:37:40;11.45;;;9.98;;
51214;SDS011;41093;47.444;19.134;2022-08-21T13:40:09;9.95;;;8.85;;
51214;SDS011;41093;47.444;19.134;2022-08-21T13:42:38;11.60;;;9.55;;
51214;SDS011;41093;47.444;19.134;2022-08-21T13:45:10;16.05;;;11.43;;
51214;SDS011;41093;47.444;19.134;2022-08-21T13:47:36;16.23;;;12.10;;
51214;SDS011;41093;47.444;19.134;2022-08-21T13:50:03;13.13;;;10.63;;
51214;SDS011;41093;47.444;19.134;2022-08-21T13:52:29;11.02;;;9.93;;
51214;SDS011;41093;47.444;19.134;2022-08-21T13:54:56;11.25;;;10.23;;
51214;SDS011;41093;47.444;19.134;2022-08-21T13:57:27;14.77;;;11.48;;
51214;SDS011;41093;47.444;19.134;2022-08-21T14:00:09;12.85;;;11.15;;
51214;SDS011;41093;47.444;19.134;2022-08-21T14:02:38;12.07;;;10.98;;
51214;SDS011;41093;47.444;19.134;2022-08-21T14:05:04;14.52;;;11.13;;
51214;SDS011;41093;47.444;19.134;2022-08-21T14:07:33;12.40;;;11.10;;
51214;SDS011;41093;47.444;19.134;2022-08-21T14:10:11;14.43;;;11.25;;
51214;SDS011;41093;47.444;19.134;2022-08-21T14:12:42;13.23;;;11.20;;
51214;SDS011;41093;47.444;19.134;2022-08-21T14:15:09;12.07;;;10.60;;
51214;SDS011;41093;47.444;19.134;2022-08-21T14:17:39;11.25;;;10.10;;
51214;SDS011;41093;47.444;19.134;2022-08-21T14:20:08;12.27;;;10.98;;
51214;SDS011;41093;47.444;19.134;2022-08-21T14:22:39;11.05;;;9.75;;
51214;SDS011;41093;47.444;19.134;2022-08-21T14:27:49;8.98;;;8.25;;
51214;SDS011;41093;47.444;19.134;2022-08-21T14:30:17;9.45;;;8.13;;
51214;SDS011;41093;47.444;19.134;2022-08-21T14:32:46;9.25;;;8.35;;
51214;SDS011;41093;47.444;19.134;2022-08-21T14:35:12;11.65;;;8.63;;
51214;SDS011;41093;47.444;19.134;2022-08-21T14:37:42;9.45;;;8.52;;
51214;SDS011;41093;47.444;19.134;2022-08-21T14:40:08;8.52;;;7.82;;
51214;SDS011;41093;47.444;19.134;2022-08-21T14:42:35;9.35;;;8.45;;
51214;SDS011;41093;47.444;19.134;2022-08-21T14:45:05;8.57;;;7.57;;
51214;SDS011;41093;47.444;19.134;2022-08-21T14:47:33;8.70;;;7.80;;
51214;SDS011;41093;47.444;19.134;2022-08-21T14:49:59;8.52;;;7.70;;
51214;SDS011;41093;47.444;19.134;2022-08-21T14:52:25;10.65;;;8.73;;
51214;SDS011;41093;47.444;19.134;2022-08-21T14:54:51;11.50;;;8.88;;
51214;SDS011;41093;47.444;19.134;2022-08-21T14:57:17;11.55;;;8.95;;
51214;SDS011;41093;47.444;19.134;2022-08-21T14:59:43;10.40;;;9.13;;
51214;SDS011;41093;47.444;19.134;2022-08-21T15:02:10;11.52;;;8.52;;
51214;SDS011;41093;47.444;19.134;2022-08-21T15:04:36;8.05;;;7.18;;
51214;SDS011;41093;47.444;19.134;2022-08-21T15:07:02;8.40;;;7.60;;
51214;SDS011;41093;47.444;19.134;2022-08-21T15:09:28;8.57;;;7.28;;
51214;SDS011;41093;47.444;19.134;2022-08-21T15:11:56;9.05;;;7.38;;
51214;SDS011;41093;47.444;19.134;2022-08-21T15:14:24;9.85;;;7.55;;
51214;SDS011;41093;47.444;19.134;2022-08-21T15:16:51;7.72;;;7.03;;
51214;SDS011;41093;47.444;19.134;2022-08-21T15:19:17;7.78;;;6.97;;
51214;SDS011;41093;47.444;19.134;2022-08-21T15:21:43;8.35;;;7.55;;
51214;SDS011;41093;47.444;19.134;2022-08-21T15:24:09;9.05;;;8.15;;
51214;SDS011;41093;47.444;19.134;2022-08-21T15:26:35;8.88;;;8.07;;
51214;SDS011;41093;47.444;19.134;2022-08-21T15:29:02;7.60;;;6.95;;
51214;SDS011;41093;47.444;19.134;2022-08-21T15:31:28;9.27;;;8.48;;
51214;SDS011;41093;47.444;19.134;2022-08-21T15:33:54;8.40;;;7.63;;
51214;SDS011;41093;47.444;19.134;2022-08-21T15:36:20;9.00;;;8.20;;
51214;SDS011;41093;47.444;19.134;2022-08-21T15:38:47;9.80;;;8.95;;
51214;SDS011;41093;47.444;19.134;2022-08-21T15:41:13;9.60;;;8.63;;
51214;SDS011;41093;47.444;19.134;2022-08-21T15:43:51;9.07;;;8.18;;
51214;SDS011;41093;47.444;19.134;2022-08-21T15:46:18;8.77;;;7.97;;
51214;SDS011;41093;47.444;19.134;2022-08-21T15:48:45;9.48;;;8.57;;
51214;SDS011;41093;47.444;19.134;2022-08-21T15:51:11;9.48;;;8.57;;
51214;SDS011;41093;47.444;19.134;2022-08-21T15:53:38;8.70;;;7.90;;
51214;SDS011;41093;47.444;19.134;2022-08-21T15:56:14;10.05;;;9.07;;